createdAt,value
2023-03-17T00:04:35.046Z,99553.02
2023-03-17T00:09:39.548Z,99556.84
2023-03-17T00:14:48.369Z,99558.94
2023-03-17T00:19:50.119Z,99567.80
2023-03-17T00:24:51.969Z,99574.74
2023-03-17T00:29:54.137Z,99573.48
2023-03-17T00:34:56.650Z,99569.73
2023-03-17T00:39:58.420Z,99572.61
2023-03-17T00:45:03.603Z,99570.27
2023-03-17T00:50:18.067Z,99562.45
2023-03-17T00:55:42.460Z,99558.73
2023-03-17T01:00:45.728Z,99545.20
2023-03-17T01:05:49.255Z,99539.42
2023-03-17T01:10:51.020Z,99535.14
2023-03-17T01:15:56.584Z,99536.48
2023-03-17T01:20:58.761Z,99536.25
2023-03-17T01:26:00.684Z,99538.20
2023-03-17T01:31:02.954Z,99535.72
2023-03-17T01:36:05.437Z,99536.77
2023-03-17T01:41:07.260Z,99532.40
2023-03-17T01:46:16.081Z,99538.58
2023-03-17T01:51:24.399Z,99525.62
2023-03-17T01:56:27.083Z,99526.10
2023-03-17T02:01:33.973Z,99524.00
2023-03-17T02:06:42.155Z,99506.02
2023-03-17T02:11:50.768Z,99501.84
2023-03-17T02:16:53.658Z,99486.78
2023-03-17T02:21:59.852Z,99472.41
2023-03-17T02:27:08.370Z,99473.70
2023-03-17T02:32:10.353Z,99462.41
2023-03-17T02:37:12.117Z,99463.11
2023-03-17T02:42:14.567Z,99462.01
2023-03-17T02:47:17.366Z,99449.55
2023-03-17T02:52:19.120Z,99445.45
2023-03-17T02:57:21.522Z,99456.60
2023-03-17T03:02:23.319Z,99459.63
2023-03-17T03:07:25.045Z,99465.34
2023-03-17T03:12:26.747Z,99469.34
2023-03-17T03:17:28.727Z,99474.04
2023-03-17T03:22:30.729Z,99467.16
2023-03-17T03:27:32.689Z,99476.36
2023-03-17T03:32:34.487Z,99483.66
2023-03-17T03:37:36.690Z,99489.83
2023-03-17T03:42:38.369Z,99491.89
2023-03-17T03:47:40.496Z,99489.17
2023-03-17T03:52:42.275Z,99489.23
2023-03-17T03:57:44.252Z,99486.02
2023-03-17T04:02:46.849Z,99479.89
2023-03-17T04:07:48.876Z,99479.73
2023-03-17T04:12:50.685Z,99475.66
2023-03-17T04:17:54.947Z,99468.59
2023-03-17T04:22:56.635Z,99456.38
2023-03-17T04:27:58.374Z,99458.61
2023-03-17T04:33:00.255Z,99462.04
2023-03-17T04:38:02.914Z,99456.10
2023-03-17T04:43:04.650Z,99470.23
2023-03-17T04:48:06.489Z,99473.36
2023-03-17T04:53:09.234Z,99480.98
2023-03-17T04:58:15.437Z,99482.77
2023-03-17T05:03:27.231Z,99481.79
2023-03-17T05:08:31.543Z,99476.70
2023-03-17T05:13:33.278Z,99477.83
2023-03-17T05:18:36.532Z,99478.08
2023-03-17T05:23:38.283Z,99477.55
2023-03-17T05:28:40.053Z,99475.55
2023-03-17T05:33:41.969Z,99480.15
2023-03-17T05:38:44.675Z,99478.36
2023-03-17T05:43:46.950Z,99480.23
2023-03-17T05:48:48.977Z,99477.39
2023-03-17T05:53:51.541Z,99475.69
2023-03-17T05:58:53.271Z,99479.49
2023-03-17T06:03:56.664Z,99479.56
2023-03-17T06:08:59.886Z,99481.03
2023-03-17T06:14:02.152Z,99485.31
2023-03-17T06:19:04.078Z,99479.44
2023-03-17T06:24:06.936Z,99484.23
2023-03-17T06:29:12.651Z,99478.53
2023-03-17T06:34:14.307Z,99469.17
2023-03-17T06:39:18.124Z,99469.94
2023-03-17T06:44:20.091Z,99479.73
2023-03-17T06:49:22.098Z,99483.98
2023-03-17T06:54:25.513Z,99486.10
2023-03-17T06:59:27.508Z,99486.77
2023-03-17T07:04:29.438Z,99485.69
2023-03-17T07:09:34.359Z,99491.09
2023-03-17T07:14:36.913Z,99494.91
2023-03-17T07:19:39.007Z,99499.59
2023-03-17T07:24:43.236Z,99502.93
2023-03-17T07:29:45.029Z,99506.88
2023-03-17T07:34:46.975Z,99505.13
2023-03-17T07:39:49.074Z,99507.39
2023-03-17T07:44:51.470Z,99508.04
2023-03-17T07:49:53.528Z,99507.48
2023-03-17T07:54:56.117Z,99498.99
2023-03-17T07:59:57.830Z,99493.23
2023-03-17T08:04:59.558Z,99495.19
2023-03-17T08:10:01.371Z,99487.52
2023-03-17T08:15:03.561Z,99477.73
2023-03-17T08:20:05.949Z,99473.98
2023-03-17T08:25:09.743Z,99470.25
2023-03-17T08:30:12.777Z,99463.42
2023-03-17T08:35:16.043Z,99455.46
2023-03-17T08:40:19.676Z,99449.77
2023-03-17T08:45:21.352Z,99455.09
2023-03-17T08:50:26.754Z,99443.92
2023-03-17T08:55:28.460Z,99437.35
2023-03-17T09:00:30.517Z,99435.76
2023-03-17T09:05:35.671Z,99438.89
2023-03-17T09:10:39.443Z,99440.48
2023-03-17T09:15:41.175Z,99435.17
2023-03-17T09:20:43.319Z,99433.11
2023-03-17T09:25:45.214Z,99421.31
2023-03-17T09:30:47.052Z,99421.88
2023-03-17T09:35:52.235Z,99413.20
2023-03-17T09:41:00.476Z,99412.33
2023-03-17T09:46:16.350Z,99405.77
2023-03-17T09:51:19.720Z,99405.29
2023-03-17T09:56:23.420Z,99402.86
2023-03-17T10:01:25.530Z,99400.08
2023-03-17T10:06:36.398Z,99396.04
2023-03-17T10:11:44.239Z,99380.39
2023-03-17T10:17:03.647Z,99373.23
2023-03-17T10:22:21.957Z,99372.02
2023-03-17T10:27:23.725Z,99377.92
2023-03-17T10:32:27.575Z,99380.70
2023-03-17T10:37:36.519Z,99375.77
2023-03-17T10:42:52.970Z,99382.20
2023-03-17T10:48:01.862Z,99374.40
2023-03-17T10:53:03.491Z,99360.50
2023-03-17T10:58:19.859Z,99333.33
2023-03-17T11:03:27.970Z,99307.55
2023-03-17T11:08:38.353Z,99290.08
2023-03-17T11:13:40.897Z,99324.48
2023-03-17T11:18:43.139Z,99320.80
2023-03-17T11:23:57.760Z,99323.22
2023-03-17T11:29:35.982Z,99321.02
2023-03-17T11:35:03.663Z,99313.46
2023-03-17T11:40:31.976Z,99321.91
2023-03-17T11:45:52.530Z,99314.02
2023-03-17T11:51:16.110Z,99304.58
2023-03-17T11:56:39.058Z,99295.30
2023-03-17T12:01:54.866Z,99297.19
2023-03-17T12:07:09.194Z,99291.02
2023-03-17T12:12:16.037Z,99290.33
2023-03-17T12:17:52.040Z,99283.98
2023-03-17T12:23:05.535Z,99277.79
2023-03-17T12:28:16.113Z,99270.91
2023-03-17T12:33:27.812Z,99261.14
2023-03-17T12:38:43.750Z,99250.83
2023-03-17T12:43:45.591Z,99244.81
2023-03-17T12:48:47.314Z,99244.11
2023-03-17T12:53:51.214Z,99234.69
2023-03-17T12:58:59.595Z,99234.17
2023-03-17T13:04:14.481Z,99227.83
2023-03-17T13:09:31.885Z,99220.96
2023-03-17T13:14:51.669Z,99217.02
2023-03-17T13:20:08.466Z,99221.66
2023-03-17T13:25:12.978Z,99213.94
2023-03-17T13:30:25.881Z,99209.65
2023-03-17T13:35:39.337Z,99196.78
2023-03-17T13:40:51.774Z,99184.25
2023-03-17T13:45:56.087Z,99183.57
2023-03-17T13:51:25.704Z,99177.05
2023-03-17T13:56:47.392Z,99168.64
2023-03-17T14:02:03.481Z,99162.80
2023-03-17T14:07:12.827Z,99154.73
2023-03-17T14:12:22.998Z,99150.27
2023-03-17T14:17:44.558Z,99138.73
2023-03-17T14:22:52.817Z,99123.29
2023-03-17T14:27:57.762Z,99117.45
2023-03-17T14:33:25.031Z,99114.70
2023-03-17T14:38:32.384Z,99116.26
2023-03-17T14:43:36.296Z,99116.24
2023-03-17T14:48:41.368Z,99111.96
2023-03-17T14:53:46.410Z,99098.27
2023-03-17T14:58:51.615Z,99089.36
2023-03-17T15:03:56.659Z,99085.42
2023-03-17T15:09:00.472Z,99084.77
2023-03-17T15:14:25.928Z,99077.02
2023-03-17T15:19:31.072Z,99077.89
2023-03-17T15:24:44.077Z,99072.94
2023-03-17T15:29:46.713Z,99071.05
2023-03-17T15:34:50.321Z,99069.52
2023-03-17T15:39:53.773Z,99071.75
2023-03-17T15:44:55.476Z,99070.52
2023-03-17T15:50:00.112Z,99067.56
2023-03-17T15:55:01.928Z,99071.46
2023-03-17T16:00:05.601Z,99072.77
2023-03-17T16:05:35.332Z,99068.53
2023-03-17T16:10:37.412Z,99072.30
2023-03-17T16:15:43.055Z,99066.48
2023-03-17T16:20:47.868Z,99060.42
2023-03-17T16:25:51.696Z,99054.02
2023-03-17T16:30:59.605Z,99052.56
2023-03-17T16:36:02.022Z,99060.09
2023-03-17T16:41:20.395Z,99059.39
2023-03-17T16:46:35.400Z,99061.08
2023-03-17T16:51:37.340Z,99063.52
2023-03-17T16:56:41.179Z,99068.34
2023-03-17T17:01:42.917Z,99062.19
2023-03-17T17:06:44.696Z,99069.73
2023-03-17T17:11:47.474Z,99071.23
2023-03-17T17:16:49.387Z,99075.70
2023-03-17T17:21:51.329Z,99076.47
2023-03-17T17:26:53.015Z,99084.21
2023-03-17T17:31:54.868Z,99087.73
2023-03-17T17:36:56.841Z,99085.46
2023-03-17T17:41:58.862Z,99081.90
2023-03-17T17:47:00.705Z,99078.06
2023-03-17T17:52:02.489Z,99079.80
2023-03-17T17:57:04.870Z,99078.68
2023-03-17T18:02:07.251Z,99090.33
2023-03-17T18:07:09.282Z,99086.74
2023-03-17T18:12:12.746Z,99090.04
2023-03-17T18:17:21.779Z,99085.49
2023-03-17T18:22:23.509Z,99085.86
2023-03-17T18:27:25.243Z,99085.03
2023-03-17T18:32:28.825Z,99091.57
2023-03-17T18:37:33.724Z,99098.92
2023-03-17T18:42:36.973Z,99103.44
2023-03-17T18:47:39.186Z,99102.69
2023-03-17T18:52:42.588Z,99094.36
2023-03-17T18:57:44.907Z,99088.34
2023-03-17T19:02:47.289Z,99081.81
2023-03-17T19:07:49.186Z,99074.68
2023-03-17T19:12:52.126Z,99074.13
2023-03-17T19:17:54.353Z,99071.50
2023-03-17T19:22:56.882Z,99066.19
2023-03-17T19:27:59.278Z,99067.96
2023-03-17T19:33:01.421Z,99061.20
2023-03-17T19:38:04.165Z,99059.77
2023-03-17T19:43:06.778Z,99062.08
2023-03-17T19:48:34.020Z,99061.95
2023-03-17T19:53:37.478Z,99054.52
2023-03-17T19:58:40.594Z,99051.02
2023-03-17T20:03:44.959Z,99046.34
2023-03-17T20:08:46.696Z,99047.43
2023-03-17T20:13:48.463Z,99043.44
2023-03-17T20:18:50.264Z,99038.77
2023-03-17T20:23:52.746Z,99037.88
2023-03-17T20:28:55.634Z,99029.91
2023-03-17T20:33:57.855Z,99028.09
2023-03-17T20:39:00.019Z,99028.18
2023-03-17T20:44:01.908Z,99027.73
2023-03-17T20:49:05.648Z,99026.92
2023-03-17T20:54:08.747Z,99024.69
2023-03-17T20:59:14.562Z,99025.02
2023-03-17T21:04:19.603Z,99031.16
2023-03-17T21:09:21.323Z,99032.02
2023-03-17T21:14:25.455Z,99034.01
2023-03-17T21:19:27.772Z,99034.83
2023-03-17T21:24:33.676Z,99032.02
2023-03-17T21:29:36.245Z,99035.12
2023-03-17T21:34:38.302Z,99038.35
2023-03-17T21:39:40.062Z,99038.33
2023-03-17T21:44:42.250Z,99037.25
2023-03-17T21:49:44.452Z,99041.19
2023-03-17T21:54:46.168Z,99041.82
2023-03-17T21:59:48.104Z,99046.18
2023-03-17T22:04:50.132Z,99054.94
2023-03-17T22:09:53.735Z,99047.61
2023-03-17T22:15:00.145Z,99046.52
2023-03-17T22:20:11.754Z,99043.94
2023-03-17T22:25:13.622Z,99043.05
2023-03-17T22:30:15.835Z,99044.02
2023-03-17T22:35:20.872Z,99045.71
2023-03-17T22:40:22.744Z,99045.88
2023-03-17T22:45:31.067Z,99038.40
2023-03-17T22:50:42.652Z,99033.65
2023-03-17T22:56:04.981Z,99027.65
2023-03-17T23:01:07.631Z,99030.48
2023-03-17T23:06:11.443Z,99031.24
2023-03-17T23:11:19.822Z,99023.98
2023-03-17T23:16:22.221Z,99027.43
2023-03-17T23:21:34.195Z,99022.59
2023-03-17T23:26:37.148Z,99019.92
2023-03-17T23:31:39.954Z,99018.84
2023-03-17T23:36:42.255Z,99017.92
2023-03-17T23:41:45.035Z,99019.11
2023-03-17T23:46:46.862Z,99018.04
2023-03-17T23:51:49.472Z,99026.23
2023-03-17T23:56:51.160Z,99026.29
